sensor_id;sensor_type;location;lat;lon;timestamp;temperature;humidity
53073;DHT22;38955;48.916;2.336;2023-07-20T00:01:43;19.90;90.90
53073;DHT22;38955;48.916;2.336;2023-07-20T00:03:48;19.90;90.90
53073;DHT22;38955;48.916;2.336;2023-07-20T00:05:57;19.90;91.00
53073;DHT22;38955;48.916;2.336;2023-07-20T00:07:59;19.80;91.10
53073;DHT22;38955;48.916;2.336;2023-07-20T00:10:01;19.80;91.10
53073;DHT22;38955;48.916;2.336;2023-07-20T00:12:03;19.80;91.20
53073;DHT22;38955;48.916;2.336;2023-07-20T00:14:06;19.80;91.20
53073;DHT22;38955;48.916;2.336;2023-07-20T00:16:08;19.80;91.30
53073;DHT22;38955;48.916;2.336;2023-07-20T00:18:10;19.80;91.20
53073;DHT22;38955;48.916;2.336;2023-07-20T00:20:14;19.80;91.20
53073;DHT22;38955;48.916;2.336;2023-07-20T00:22:16;19.70;91.30
53073;DHT22;38955;48.916;2.336;2023-07-20T00:24:18;19.70;91.30
53073;DHT22;38955;48.916;2.336;2023-07-20T00:26:20;19.70;91.50
53073;DHT22;38955;48.916;2.336;2023-07-20T00:28:23;19.70;91.60
53073;DHT22;38955;48.916;2.336;2023-07-20T00:30:25;19.60;91.50
53073;DHT22;38955;48.916;2.336;2023-07-20T00:32:27;19.60;91.50
53073;DHT22;38955;48.916;2.336;2023-07-20T00:34:29;19.60;91.50
53073;DHT22;38955;48.916;2.336;2023-07-20T00:36:32;19.50;91.70
53073;DHT22;38955;48.916;2.336;2023-07-20T00:38:34;19.50;91.80
53073;DHT22;38955;48.916;2.336;2023-07-20T00:40:37;19.50;91.80
53073;DHT22;38955;48.916;2.336;2023-07-20T00:42:39;19.50;91.80
53073;DHT22;38955;48.916;2.336;2023-07-20T00:44:41;19.50;91.70
53073;DHT22;38955;48.916;2.336;2023-07-20T00:46:43;19.50;91.80
53073;DHT22;38955;48.916;2.336;2023-07-20T00:48:46;19.50;92.00
53073;DHT22;38955;48.916;2.336;2023-07-20T00:50:48;19.50;92.20
53073;DHT22;38955;48.916;2.336;2023-07-20T00:52:51;19.50;92.00
53073;DHT22;38955;48.916;2.336;2023-07-20T00:54:54;19.50;92.20
53073;DHT22;38955;48.916;2.336;2023-07-20T00:56:58;19.40;92.20
53073;DHT22;38955;48.916;2.336;2023-07-20T00:59:03;19.50;92.10
53073;DHT22;38955;48.916;2.336;2023-07-20T01:01:05;19.40;92.30
53073;DHT22;38955;48.916;2.336;2023-07-20T01:03:10;19.40;92.40
53073;DHT22;38955;48.916;2.336;2023-07-20T01:05:13;19.40;92.30
53073;DHT22;38955;48.916;2.336;2023-07-20T01:07:25;19.40;92.40
53073;DHT22;38955;48.916;2.336;2023-07-20T01:09:36;19.40;92.40
53073;DHT22;38955;48.916;2.336;2023-07-20T01:11:48;19.40;92.40
53073;DHT22;38955;48.916;2.336;2023-07-20T01:13:51;19.30;92.60
53073;DHT22;38955;48.916;2.336;2023-07-20T01:15:57;19.20;92.60
53073;DHT22;38955;48.916;2.336;2023-07-20T01:18:01;19.30;92.60
53073;DHT22;38955;48.916;2.336;2023-07-20T01:20:05;19.20;92.60
53073;DHT22;38955;48.916;2.336;2023-07-20T01:22:18;19.20;92.70
53073;DHT22;38955;48.916;2.336;2023-07-20T01:27:18;19.20;92.70
53073;DHT22;38955;48.916;2.336;2023-07-20T01:29:36;19.20;92.80
53073;DHT22;38955;48.916;2.336;2023-07-20T01:31:45;19.10;92.80
53073;DHT22;38955;48.916;2.336;2023-07-20T01:33:48;19.10;93.10
53073;DHT22;38955;48.916;2.336;2023-07-20T01:35:58;19.00;93.10
53073;DHT22;38955;48.916;2.336;2023-07-20T01:38:01;18.90;93.10
53073;DHT22;38955;48.916;2.336;2023-07-20T01:40:10;18.90;93.10
53073;DHT22;38955;48.916;2.336;2023-07-20T01:42:12;18.90;93.40
53073;DHT22;38955;48.916;2.336;2023-07-20T01:44:14;18.90;93.50
53073;DHT22;38955;48.916;2.336;2023-07-20T01:46:17;18.90;93.40
53073;DHT22;38955;48.916;2.336;2023-07-20T01:48:20;18.80;93.60
53073;DHT22;38955;48.916;2.336;2023-07-20T01:50:22;18.80;93.50
53073;DHT22;38955;48.916;2.336;2023-07-20T01:52:24;18.90;93.50
53073;DHT22;38955;48.916;2.336;2023-07-20T01:54:26;18.90;93.70
53073;DHT22;38955;48.916;2.336;2023-07-20T01:56:28;18.90;93.60
53073;DHT22;38955;48.916;2.336;2023-07-20T01:58:30;18.90;93.70
53073;DHT22;38955;48.916;2.336;2023-07-20T02:00:32;18.90;93.70
53073;DHT22;38955;48.916;2.336;2023-07-20T02:02:35;18.90;93.90
53073;DHT22;38955;48.916;2.336;2023-07-20T02:04:38;18.90;93.70
53073;DHT22;38955;48.916;2.336;2023-07-20T02:06:40;18.90;93.80
53073;DHT22;38955;48.916;2.336;2023-07-20T02:08:42;18.80;93.90
53073;DHT22;38955;48.916;2.336;2023-07-20T02:10:47;18.80;93.90
53073;DHT22;38955;48.916;2.336;2023-07-20T02:12:49;18.80;94.00
53073;DHT22;38955;48.916;2.336;2023-07-20T02:14:51;18.80;93.90
53073;DHT22;38955;48.916;2.336;2023-07-20T02:16:53;18.80;94.10
53073;DHT22;38955;48.916;2.336;2023-07-20T02:18:59;18.70;94.10
53073;DHT22;38955;48.916;2.336;2023-07-20T02:21:03;18.70;94.20
53073;DHT22;38955;48.916;2.336;2023-07-20T02:23:05;18.70;94.30
53073;DHT22;38955;48.916;2.336;2023-07-20T02:25:08;18.70;94.20
53073;DHT22;38955;48.916;2.336;2023-07-20T02:27:10;18.70;94.40
53073;DHT22;38955;48.916;2.336;2023-07-20T02:29:12;18.70;94.30
53073;DHT22;38955;48.916;2.336;2023-07-20T02:31:15;18.70;94.30
53073;DHT22;38955;48.916;2.336;2023-07-20T02:33:17;18.70;94.50
53073;DHT22;38955;48.916;2.336;2023-07-20T02:35:19;18.70;94.50
53073;DHT22;38955;48.916;2.336;2023-07-20T02:37:22;18.70;94.30
53073;DHT22;38955;48.916;2.336;2023-07-20T02:39:25;18.70;94.40
53073;DHT22;38955;48.916;2.336;2023-07-20T02:41:28;18.70;94.50
53073;DHT22;38955;48.916;2.336;2023-07-20T02:43:30;18.70;94.60
53073;DHT22;38955;48.916;2.336;2023-07-20T02:45:33;18.70;94.40
53073;DHT22;38955;48.916;2.336;2023-07-20T02:47:35;18.80;94.60
53073;DHT22;38955;48.916;2.336;2023-07-20T02:49:37;18.70;94.60
53073;DHT22;38955;48.916;2.336;2023-07-20T02:51:39;18.70;94.70
53073;DHT22;38955;48.916;2.336;2023-07-20T02:53:43;18.70;94.90
53073;DHT22;38955;48.916;2.336;2023-07-20T02:55:46;18.70;94.90
53073;DHT22;38955;48.916;2.336;2023-07-20T02:57:49;18.60;95.00
53073;DHT22;38955;48.916;2.336;2023-07-20T02:59:52;18.60;94.70
53073;DHT22;38955;48.916;2.336;2023-07-20T03:01:54;18.60;95.00
53073;DHT22;38955;48.916;2.336;2023-07-20T03:03:56;18.60;95.30
53073;DHT22;38955;48.916;2.336;2023-07-20T03:05:58;18.60;95.10
53073;DHT22;38955;48.916;2.336;2023-07-20T03:08:01;18.60;95.00
53073;DHT22;38955;48.916;2.336;2023-07-20T03:10:07;18.60;95.00
53073;DHT22;38955;48.916;2.336;2023-07-20T03:12:10;18.60;95.20
53073;DHT22;38955;48.916;2.336;2023-07-20T03:14:12;18.60;95.00
53073;DHT22;38955;48.916;2.336;2023-07-20T03:16:19;18.60;95.20
53073;DHT22;38955;48.916;2.336;2023-07-20T03:18:22;18.60;95.10
53073;DHT22;38955;48.916;2.336;2023-07-20T03:20:24;18.60;95.10
53073;DHT22;38955;48.916;2.336;2023-07-20T03:22:27;18.50;95.30
53073;DHT22;38955;48.916;2.336;2023-07-20T03:24:29;18.50;95.20
53073;DHT22;38955;48.916;2.336;2023-07-20T03:26:33;18.50;95.30
53073;DHT22;38955;48.916;2.336;2023-07-20T03:28:35;18.50;95.40
53073;DHT22;38955;48.916;2.336;2023-07-20T03:30:37;18.60;95.50
53073;DHT22;38955;48.916;2.336;2023-07-20T03:32:39;18.50;95.40
53073;DHT22;38955;48.916;2.336;2023-07-20T03:34:41;18.50;95.30
53073;DHT22;38955;48.916;2.336;2023-07-20T03:36:43;18.50;95.30
53073;DHT22;38955;48.916;2.336;2023-07-20T03:38:45;18.50;95.40
53073;DHT22;38955;48.916;2.336;2023-07-20T03:40:51;18.60;95.30
53073;DHT22;38955;48.916;2.336;2023-07-20T03:42:55;18.50;95.40
53073;DHT22;38955;48.916;2.336;2023-07-20T03:44:57;18.50;95.30
53073;DHT22;38955;48.916;2.336;2023-07-20T03:46:59;18.60;95.30
53073;DHT22;38955;48.916;2.336;2023-07-20T03:49:01;18.50;95.30
53073;DHT22;38955;48.916;2.336;2023-07-20T03:51:03;18.50;95.40
53073;DHT22;38955;48.916;2.336;2023-07-20T03:53:06;18.50;95.40
53073;DHT22;38955;48.916;2.336;2023-07-20T03:55:09;18.50;95.30
53073;DHT22;38955;48.916;2.336;2023-07-20T03:57:11;18.50;95.50
53073;DHT22;38955;48.916;2.336;2023-07-20T03:59:15;18.50;95.60
53073;DHT22;38955;48.916;2.336;2023-07-20T04:01:17;18.50;95.60
53073;DHT22;38955;48.916;2.336;2023-07-20T04:03:19;18.40;95.60
53073;DHT22;38955;48.916;2.336;2023-07-20T04:05:22;18.40;95.60
53073;DHT22;38955;48.916;2.336;2023-07-20T04:07:24;18.40;95.50
53073;DHT22;38955;48.916;2.336;2023-07-20T04:09:26;18.40;95.60
53073;DHT22;38955;48.916;2.336;2023-07-20T04:11:28;18.40;95.50
53073;DHT22;38955;48.916;2.336;2023-07-20T04:13:30;18.50;95.40
53073;DHT22;38955;48.916;2.336;2023-07-20T04:15:37;18.50;95.50
53073;DHT22;38955;48.916;2.336;2023-07-20T04:17:39;18.40;95.50
53073;DHT22;38955;48.916;2.336;2023-07-20T04:19:42;18.40;95.60
53073;DHT22;38955;48.916;2.336;2023-07-20T04:21:44;18.40;95.60
53073;DHT22;38955;48.916;2.336;2023-07-20T04:23:46;18.40;95.60
53073;DHT22;38955;48.916;2.336;2023-07-20T04:25:49;18.40;95.40
53073;DHT22;38955;48.916;2.336;2023-07-20T04:27:51;18.40;95.50
53073;DHT22;38955;48.916;2.336;2023-07-20T04:29:53;18.40;95.70
53073;DHT22;38955;48.916;2.336;2023-07-20T04:31:57;18.40;95.70
53073;DHT22;38955;48.916;2.336;2023-07-20T04:33:59;18.40;95.70
53073;DHT22;38955;48.916;2.336;2023-07-20T04:36:01;18.40;95.80
53073;DHT22;38955;48.916;2.336;2023-07-20T04:38:03;18.40;96.00
53073;DHT22;38955;48.916;2.336;2023-07-20T04:40:06;18.40;96.10
53073;DHT22;38955;48.916;2.336;2023-07-20T04:42:10;18.50;96.10
53073;DHT22;38955;48.916;2.336;2023-07-20T04:44:13;18.50;95.90
53073;DHT22;38955;48.916;2.336;2023-07-20T04:46:15;18.50;95.90
53073;DHT22;38955;48.916;2.336;2023-07-20T04:48:20;18.50;96.30
53073;DHT22;38955;48.916;2.336;2023-07-20T04:50:22;18.60;96.10
53073;DHT22;38955;48.916;2.336;2023-07-20T04:52:27;18.60;95.90
53073;DHT22;38955;48.916;2.336;2023-07-20T04:54:43;18.60;96.00
53073;DHT22;38955;48.916;2.336;2023-07-20T04:56:45;18.60;96.00
53073;DHT22;38955;48.916;2.336;2023-07-20T04:58:49;18.60;96.30
53073;DHT22;38955;48.916;2.336;2023-07-20T05:00:52;18.60;96.10
53073;DHT22;38955;48.916;2.336;2023-07-20T05:02:54;18.50;96.60
53073;DHT22;38955;48.916;2.336;2023-07-20T05:04:57;18.50;96.50
53073;DHT22;38955;48.916;2.336;2023-07-20T05:06:59;18.50;96.50
53073;DHT22;38955;48.916;2.336;2023-07-20T05:09:01;18.50;96.50
53073;DHT22;38955;48.916;2.336;2023-07-20T05:11:04;18.50;96.60
53073;DHT22;38955;48.916;2.336;2023-07-20T05:13:06;18.60;96.40
53073;DHT22;38955;48.916;2.336;2023-07-20T05:15:09;18.60;96.50
53073;DHT22;38955;48.916;2.336;2023-07-20T05:17:11;18.60;96.40
53073;DHT22;38955;48.916;2.336;2023-07-20T05:19:13;18.60;96.50
53073;DHT22;38955;48.916;2.336;2023-07-20T05:21:17;18.70;96.20
53073;DHT22;38955;48.916;2.336;2023-07-20T05:23:19;18.70;96.10
53073;DHT22;38955;48.916;2.336;2023-07-20T05:25:22;18.70;96.30
53073;DHT22;38955;48.916;2.336;2023-07-20T05:27:24;18.70;96.40
53073;DHT22;38955;48.916;2.336;2023-07-20T05:29:26;18.70;96.30
53073;DHT22;38955;48.916;2.336;2023-07-20T05:31:28;18.70;96.50
53073;DHT22;38955;48.916;2.336;2023-07-20T05:33:32;18.70;96.30
53073;DHT22;38955;48.916;2.336;2023-07-20T05:35:36;18.70;96.30
53073;DHT22;38955;48.916;2.336;2023-07-20T05:37:39;18.70;96.10
53073;DHT22;38955;48.916;2.336;2023-07-20T05:39:41;18.70;96.20
53073;DHT22;38955;48.916;2.336;2023-07-20T05:41:43;18.70;96.20
53073;DHT22;38955;48.916;2.336;2023-07-20T05:43:45;18.70;96.20
53073;DHT22;38955;48.916;2.336;2023-07-20T05:45:47;18.80;96.00
53073;DHT22;38955;48.916;2.336;2023-07-20T05:47:50;18.80;96.10
53073;DHT22;38955;48.916;2.336;2023-07-20T05:49:52;18.80;96.30
53073;DHT22;38955;48.916;2.336;2023-07-20T05:51:54;18.80;96.00
53073;DHT22;38955;48.916;2.336;2023-07-20T05:53:57;18.80;95.80
53073;DHT22;38955;48.916;2.336;2023-07-20T05:56:00;18.80;95.90
53073;DHT22;38955;48.916;2.336;2023-07-20T05:58:02;18.90;95.90
53073;DHT22;38955;48.916;2.336;2023-07-20T06:00:07;18.90;95.80
53073;DHT22;38955;48.916;2.336;2023-07-20T06:02:09;18.90;95.70
53073;DHT22;38955;48.916;2.336;2023-07-20T06:04:11;18.90;95.70
53073;DHT22;38955;48.916;2.336;2023-07-20T06:06:13;18.80;95.70
53073;DHT22;38955;48.916;2.336;2023-07-20T06:08:17;18.90;95.60
53073;DHT22;38955;48.916;2.336;2023-07-20T06:10:21;18.90;95.60
53073;DHT22;38955;48.916;2.336;2023-07-20T06:12:23;18.90;95.50
53073;DHT22;38955;48.916;2.336;2023-07-20T06:14:25;19.00;95.40
53073;DHT22;38955;48.916;2.336;2023-07-20T06:16:27;19.00;95.50
53073;DHT22;38955;48.916;2.336;2023-07-20T06:18:30;18.90;95.50
53073;DHT22;38955;48.916;2.336;2023-07-20T06:20:32;19.00;95.30
53073;DHT22;38955;48.916;2.336;2023-07-20T06:22:34;19.00;95.30
53073;DHT22;38955;48.916;2.336;2023-07-20T06:24:36;19.00;95.40
53073;DHT22;38955;48.916;2.336;2023-07-20T06:26:40;18.90;95.80
53073;DHT22;38955;48.916;2.336;2023-07-20T06:28:42;19.00;95.40
53073;DHT22;38955;48.916;2.336;2023-07-20T06:30:44;19.00;95.40
53073;DHT22;38955;48.916;2.336;2023-07-20T06:32:47;19.00;95.40
53073;DHT22;38955;48.916;2.336;2023-07-20T06:34:49;19.00;95.20
53073;DHT22;38955;48.916;2.336;2023-07-20T06:36:51;19.00;95.20
53073;DHT22;38955;48.916;2.336;2023-07-20T06:38:53;19.00;95.40
53073;DHT22;38955;48.916;2.336;2023-07-20T06:40:58;19.10;95.10
53073;DHT22;38955;48.916;2.336;2023-07-20T06:43:21;19.10;95.20
53073;DHT22;38955;48.916;2.336;2023-07-20T06:45:26;19.10;95.30
53073;DHT22;38955;48.916;2.336;2023-07-20T06:47:29;19.10;95.30
53073;DHT22;38955;48.916;2.336;2023-07-20T06:49:31;19.10;95.30
53073;DHT22;38955;48.916;2.336;2023-07-20T06:51:33;19.10;95.40
53073;DHT22;38955;48.916;2.336;2023-07-20T06:53:35;19.10;95.40
53073;DHT22;38955;48.916;2.336;2023-07-20T06:55:37;19.10;95.40
53073;DHT22;38955;48.916;2.336;2023-07-20T06:57:44;19.20;95.30
53073;DHT22;38955;48.916;2.336;2023-07-20T06:59:51;19.20;95.30
53073;DHT22;38955;48.916;2.336;2023-07-20T07:01:53;19.30;95.20
53073;DHT22;38955;48.916;2.336;2023-07-20T07:03:55;19.30;95.20
53073;DHT22;38955;48.916;2.336;2023-07-20T07:05:57;19.30;94.90
53073;DHT22;38955;48.916;2.336;2023-07-20T07:07:59;19.30;95.10
53073;DHT22;38955;48.916;2.336;2023-07-20T07:10:02;19.40;95.20
53073;DHT22;38955;48.916;2.336;2023-07-20T07:12:07;19.50;94.90
53073;DHT22;38955;48.916;2.336;2023-07-20T07:14:09;19.60;94.70
53073;DHT22;38955;48.916;2.336;2023-07-20T07:16:13;19.80;94.30
53073;DHT22;38955;48.916;2.336;2023-07-20T07:18:21;19.90;94.20
53073;DHT22;38955;48.916;2.336;2023-07-20T07:20:23;20.10;94.10
53073;DHT22;38955;48.916;2.336;2023-07-20T07:22:25;20.20;93.90
53073;DHT22;38955;48.916;2.336;2023-07-20T07:24:28;20.40;93.70
53073;DHT22;38955;48.916;2.336;2023-07-20T07:26:35;20.40;93.40
53073;DHT22;38955;48.916;2.336;2023-07-20T07:28:37;20.50;93.40
53073;DHT22;38955;48.916;2.336;2023-07-20T07:30:40;20.70;93.20
53073;DHT22;38955;48.916;2.336;2023-07-20T07:32:43;20.80;92.80
53073;DHT22;38955;48.916;2.336;2023-07-20T07:34:45;21.10;92.70
53073;DHT22;38955;48.916;2.336;2023-07-20T07:36:51;21.10;92.40
53073;DHT22;38955;48.916;2.336;2023-07-20T07:38:53;21.20;92.40
53073;DHT22;38955;48.916;2.336;2023-07-20T07:40:58;21.20;92.10
53073;DHT22;38955;48.916;2.336;2023-07-20T07:43:00;21.20;91.90
53073;DHT22;38955;48.916;2.336;2023-07-20T07:45:03;21.30;92.00
53073;DHT22;38955;48.916;2.336;2023-07-20T07:47:05;21.30;91.80
53073;DHT22;38955;48.916;2.336;2023-07-20T07:49:09;21.30;91.80
53073;DHT22;38955;48.916;2.336;2023-07-20T07:51:11;21.40;91.60
53073;DHT22;38955;48.916;2.336;2023-07-20T07:53:15;21.30;91.50
53073;DHT22;38955;48.916;2.336;2023-07-20T07:55:17;21.50;91.80
53073;DHT22;38955;48.916;2.336;2023-07-20T07:57:19;21.40;91.60
53073;DHT22;38955;48.916;2.336;2023-07-20T07:59:22;21.50;91.60
53073;DHT22;38955;48.916;2.336;2023-07-20T08:01:24;21.70;91.50
53073;DHT22;38955;48.916;2.336;2023-07-20T08:03:27;21.70;91.10
53073;DHT22;38955;48.916;2.336;2023-07-20T08:05:30;21.80;91.20
53073;DHT22;38955;48.916;2.336;2023-07-20T08:07:33;21.80;91.10
53073;DHT22;38955;48.916;2.336;2023-07-20T08:09:35;21.80;90.90
53073;DHT22;38955;48.916;2.336;2023-07-20T08:11:39;21.80;90.70
53073;DHT22;38955;48.916;2.336;2023-07-20T08:13:41;21.80;90.60
53073;DHT22;38955;48.916;2.336;2023-07-20T08:15:50;21.90;90.50
53073;DHT22;38955;48.916;2.336;2023-07-20T08:17:53;22.00;90.40
53073;DHT22;38955;48.916;2.336;2023-07-20T08:19:56;22.10;90.30
53073;DHT22;38955;48.916;2.336;2023-07-20T08:21:59;22.20;90.10
53073;DHT22;38955;48.916;2.336;2023-07-20T08:24:02;22.20;90.10
53073;DHT22;38955;48.916;2.336;2023-07-20T08:26:05;22.30;89.30
53073;DHT22;38955;48.916;2.336;2023-07-20T08:28:08;22.40;88.70
53073;DHT22;38955;48.916;2.336;2023-07-20T08:30:11;22.50;88.90
53073;DHT22;38955;48.916;2.336;2023-07-20T08:32:13;22.40;88.60
53073;DHT22;38955;48.916;2.336;2023-07-20T08:34:16;22.40;87.90
53073;DHT22;38955;48.916;2.336;2023-07-20T08:36:32;22.40;88.10
53073;DHT22;38955;48.916;2.336;2023-07-20T08:38:36;22.50;87.70
53073;DHT22;38955;48.916;2.336;2023-07-20T08:40:42;22.50;87.60
53073;DHT22;38955;48.916;2.336;2023-07-20T08:42:44;22.50;87.20
53073;DHT22;38955;48.916;2.336;2023-07-20T08:44:48;22.60;87.20
53073;DHT22;38955;48.916;2.336;2023-07-20T08:46:51;22.80;86.20
53073;DHT22;38955;48.916;2.336;2023-07-20T08:48:55;22.70;85.30
53073;DHT22;38955;48.916;2.336;2023-07-20T08:50:58;22.70;85.00
53073;DHT22;38955;48.916;2.336;2023-07-20T08:53:02;22.80;85.50
53073;DHT22;38955;48.916;2.336;2023-07-20T08:55:06;22.90;84.60
53073;DHT22;38955;48.916;2.336;2023-07-20T08:57:11;23.00;83.80
53073;DHT22;38955;48.916;2.336;2023-07-20T08:59:17;23.00;83.30
53073;DHT22;38955;48.916;2.336;2023-07-20T09:01:20;23.00;84.00
53073;DHT22;38955;48.916;2.336;2023-07-20T09:03:24;23.00;84.40
53073;DHT22;38955;48.916;2.336;2023-07-20T09:05:26;23.00;84.60
53073;DHT22;38955;48.916;2.336;2023-07-20T09:07:29;23.00;83.90
53073;DHT22;38955;48.916;2.336;2023-07-20T09:09:31;23.10;84.10
53073;DHT22;38955;48.916;2.336;2023-07-20T09:11:34;23.20;83.80
53073;DHT22;38955;48.916;2.336;2023-07-20T09:13:37;23.10;81.50
53073;DHT22;38955;48.916;2.336;2023-07-20T09:15:45;23.00;82.40
53073;DHT22;38955;48.916;2.336;2023-07-20T09:17:49;23.20;82.10
53073;DHT22;38955;48.916;2.336;2023-07-20T09:19:51;23.30;81.70
53073;DHT22;38955;48.916;2.336;2023-07-20T09:21:53;23.30;81.80
53073;DHT22;38955;48.916;2.336;2023-07-20T09:23:56;23.40;82.10
53073;DHT22;38955;48.916;2.336;2023-07-20T09:25:59;23.40;82.50
53073;DHT22;38955;48.916;2.336;2023-07-20T09:28:04;23.40;81.90
53073;DHT22;38955;48.916;2.336;2023-07-20T09:30:07;23.50;82.20
53073;DHT22;38955;48.916;2.336;2023-07-20T09:32:11;23.60;80.60
53073;DHT22;38955;48.916;2.336;2023-07-20T09:34:26;23.60;80.80
53073;DHT22;38955;48.916;2.336;2023-07-20T09:36:33;23.80;80.50
53073;DHT22;38955;48.916;2.336;2023-07-20T09:38:41;24.00;80.10
53073;DHT22;38955;48.916;2.336;2023-07-20T09:40:46;24.00;78.60
53073;DHT22;38955;48.916;2.336;2023-07-20T09:42:52;23.90;78.60
53073;DHT22;38955;48.916;2.336;2023-07-20T09:45:08;23.90;78.60
53073;DHT22;38955;48.916;2.336;2023-07-20T09:47:11;23.90;79.50
53073;DHT22;38955;48.916;2.336;2023-07-20T09:49:13;24.00;78.10
53073;DHT22;38955;48.916;2.336;2023-07-20T09:51:19;23.90;78.30
53073;DHT22;38955;48.916;2.336;2023-07-20T09:53:24;24.00;78.10
53073;DHT22;38955;48.916;2.336;2023-07-20T09:55:27;24.10;76.80
53073;DHT22;38955;48.916;2.336;2023-07-20T09:57:29;24.30;75.30
53073;DHT22;38955;48.916;2.336;2023-07-20T09:59:32;24.20;73.00
53073;DHT22;38955;48.916;2.336;2023-07-20T10:01:37;24.40;75.00
53073;DHT22;38955;48.916;2.336;2023-07-20T10:03:46;24.50;73.70
53073;DHT22;38955;48.916;2.336;2023-07-20T10:06:02;24.50;74.90
53073;DHT22;38955;48.916;2.336;2023-07-20T10:08:09;24.70;73.90
53073;DHT22;38955;48.916;2.336;2023-07-20T10:10:17;24.70;73.00
53073;DHT22;38955;48.916;2.336;2023-07-20T10:12:22;24.80;73.80
53073;DHT22;38955;48.916;2.336;2023-07-20T10:14:29;24.80;71.90
53073;DHT22;38955;48.916;2.336;2023-07-20T10:16:36;25.00;72.00
53073;DHT22;38955;48.916;2.336;2023-07-20T10:18:47;25.10;73.30
53073;DHT22;38955;48.916;2.336;2023-07-20T10:20:54;25.10;73.30
53073;DHT22;38955;48.916;2.336;2023-07-20T10:23:00;25.00;70.90
53073;DHT22;38955;48.916;2.336;2023-07-20T10:25:03;25.00;70.70
53073;DHT22;38955;48.916;2.336;2023-07-20T10:27:06;25.00;71.00
53073;DHT22;38955;48.916;2.336;2023-07-20T10:29:09;25.10;71.60
53073;DHT22;38955;48.916;2.336;2023-07-20T10:31:12;24.90;71.50
53073;DHT22;38955;48.916;2.336;2023-07-20T10:33:17;24.80;71.40
53073;DHT22;38955;48.916;2.336;2023-07-20T10:35:21;24.80;71.30
53073;DHT22;38955;48.916;2.336;2023-07-20T10:37:46;24.70;71.30
53073;DHT22;38955;48.916;2.336;2023-07-20T10:39:48;24.70;71.60
53073;DHT22;38955;48.916;2.336;2023-07-20T10:41:50;24.80;71.60
53073;DHT22;38955;48.916;2.336;2023-07-20T10:44:04;24.90;70.40
53073;DHT22;38955;48.916;2.336;2023-07-20T10:46:07;24.80;71.60
53073;DHT22;38955;48.916;2.336;2023-07-20T10:48:13;24.80;71.70
53073;DHT22;38955;48.916;2.336;2023-07-20T10:50:21;24.70;72.20
53073;DHT22;38955;48.916;2.336;2023-07-20T10:52:25;24.60;72.40
53073;DHT22;38955;48.916;2.336;2023-07-20T10:54:34;24.50;72.70
53073;DHT22;38955;48.916;2.336;2023-07-20T10:56:37;24.40;72.30
53073;DHT22;38955;48.916;2.336;2023-07-20T10:58:39;24.30;73.10
53073;DHT22;38955;48.916;2.336;2023-07-20T11:01:03;24.30;73.10
53073;DHT22;38955;48.916;2.336;2023-07-20T11:03:06;24.30;73.50
53073;DHT22;38955;48.916;2.336;2023-07-20T11:05:39;24.20;73.90
53073;DHT22;38955;48.916;2.336;2023-07-20T11:07:42;24.40;73.80
53073;DHT22;38955;48.916;2.336;2023-07-20T11:09:44;24.60;73.10
53073;DHT22;38955;48.916;2.336;2023-07-20T11:11:50;24.80;72.80
53073;DHT22;38955;48.916;2.336;2023-07-20T11:13:57;25.00;72.80
53073;DHT22;38955;48.916;2.336;2023-07-20T11:16:03;25.30;72.00
53073;DHT22;38955;48.916;2.336;2023-07-20T11:18:12;25.60;71.90
53073;DHT22;38955;48.916;2.336;2023-07-20T11:20:16;25.50;70.80
53073;DHT22;38955;48.916;2.336;2023-07-20T11:22:22;25.70;71.10
53073;DHT22;38955;48.916;2.336;2023-07-20T11:24:24;25.80;69.60
53073;DHT22;38955;48.916;2.336;2023-07-20T11:26:27;25.80;68.70
53073;DHT22;38955;48.916;2.336;2023-07-20T11:28:30;25.70;69.70
53073;DHT22;38955;48.916;2.336;2023-07-20T11:30:32;25.90;69.30
53073;DHT22;38955;48.916;2.336;2023-07-20T11:32:35;26.00;69.00
53073;DHT22;38955;48.916;2.336;2023-07-20T11:34:37;25.90;68.20
53073;DHT22;38955;48.916;2.336;2023-07-20T11:36:40;25.90;67.60
53073;DHT22;38955;48.916;2.336;2023-07-20T11:38:47;25.90;67.50
53073;DHT22;38955;48.916;2.336;2023-07-20T11:40:49;25.90;67.90
53073;DHT22;38955;48.916;2.336;2023-07-20T11:42:53;26.00;66.90
53073;DHT22;38955;48.916;2.336;2023-07-20T11:44:58;26.10;66.30
53073;DHT22;38955;48.916;2.336;2023-07-20T11:47:03;26.20;66.60
53073;DHT22;38955;48.916;2.336;2023-07-20T11:49:06;26.40;66.50
53073;DHT22;38955;48.916;2.336;2023-07-20T11:51:13;26.30;66.10
53073;DHT22;38955;48.916;2.336;2023-07-20T11:53:17;26.30;66.50
53073;DHT22;38955;48.916;2.336;2023-07-20T11:55:20;26.40;66.50
53073;DHT22;38955;48.916;2.336;2023-07-20T11:57:23;26.40;66.00
53073;DHT22;38955;48.916;2.336;2023-07-20T11:59:25;26.20;65.70
53073;DHT22;38955;48.916;2.336;2023-07-20T12:01:27;26.10;65.70
53073;DHT22;38955;48.916;2.336;2023-07-20T12:03:34;26.10;65.20
53073;DHT22;38955;48.916;2.336;2023-07-20T12:05:38;26.10;64.90
53073;DHT22;38955;48.916;2.336;2023-07-20T12:08:00;26.20;65.10
53073;DHT22;38955;48.916;2.336;2023-07-20T12:10:06;26.00;65.30
53073;DHT22;38955;48.916;2.336;2023-07-20T12:12:10;26.00;65.40
53073;DHT22;38955;48.916;2.336;2023-07-20T12:14:16;26.10;65.00
53073;DHT22;38955;48.916;2.336;2023-07-20T12:16:20;26.20;64.40
53073;DHT22;38955;48.916;2.336;2023-07-20T12:18:23;26.30;64.10
53073;DHT22;38955;48.916;2.336;2023-07-20T12:20:27;26.40;64.20
53073;DHT22;38955;48.916;2.336;2023-07-20T12:22:29;26.40;63.70
53073;DHT22;38955;48.916;2.336;2023-07-20T12:24:31;26.40;63.40
53073;DHT22;38955;48.916;2.336;2023-07-20T12:26:34;26.30;63.40
53073;DHT22;38955;48.916;2.336;2023-07-20T12:28:40;26.30;63.30
53073;DHT22;38955;48.916;2.336;2023-07-20T12:30:46;26.30;62.80
53073;DHT22;38955;48.916;2.336;2023-07-20T12:32:49;26.30;63.50
53073;DHT22;38955;48.916;2.336;2023-07-20T12:34:52;26.40;63.80
53073;DHT22;38955;48.916;2.336;2023-07-20T12:36:54;26.40;63.50
53073;DHT22;38955;48.916;2.336;2023-07-20T12:38:57;26.50;63.80
53073;DHT22;38955;48.916;2.336;2023-07-20T12:41:00;26.50;63.20
53073;DHT22;38955;48.916;2.336;2023-07-20T12:43:03;26.60;63.30
53073;DHT22;38955;48.916;2.336;2023-07-20T12:45:09;26.60;63.00
53073;DHT22;38955;48.916;2.336;2023-07-20T12:47:12;26.60;62.60
53073;DHT22;38955;48.916;2.336;2023-07-20T12:49:14;26.60;63.00
53073;DHT22;38955;48.916;2.336;2023-07-20T12:51:16;26.60;63.30
53073;DHT22;38955;48.916;2.336;2023-07-20T12:53:18;26.70;63.50
53073;DHT22;38955;48.916;2.336;2023-07-20T12:55:21;26.70;63.20
53073;DHT22;38955;48.916;2.336;2023-07-20T12:57:23;26.90;62.80
53073;DHT22;38955;48.916;2.336;2023-07-20T12:59:25;26.80;61.80
53073;DHT22;38955;48.916;2.336;2023-07-20T13:01:28;26.40;62.00
53073;DHT22;38955;48.916;2.336;2023-07-20T13:03:30;26.50;63.10
53073;DHT22;38955;48.916;2.336;2023-07-20T13:05:34;26.60;61.50